Reading, Kansas
Current Conditions -  °F | °C
As of 2:53 AM on Friday 19 Dec 2014 (Local Time) from KEMP Reporting Station
Haze Haze  
Wind Chill: 24°   Ceiling: 300
Heat Index: 29°   Visibility: 3mi
Dew Point: 28°   Wind: 5mph
Humidity: 96%   Direction: 320°NW
Pressure: 30.24"   Gusts: NA
Location:  38.52°N, 95.96°W
Report Text: KEMP 190853Z AUTO 32004KT 3SM BR OVC003 M02/M02 A3024 RMK AO2 SLP256 T10171022 55003
Loading
Personal Weather Stations






























Interactive Weather Map New forecast layout! Learn more

10-Day Weather Forecast

Advertisements
Track Severe Weather on mobile